Time;durP1;ratioP1;P1;durP2;ratioP2;P2;SDS_P1;SDS_P2;PMS_P1;PMS_P2;Temp;Humidity;BMP_temperature;BMP_pressure;BME280_temperature;BME280_humidity;BME280_pressure;Samples;Min_cycle;Max_cycle;Signal;HPM_P1;HPM_P2
2021/12/10 00:00:23;;;;;;;6.00;2.37;;;;;;;1.42;100.00;96887.78;5111835;28;20214;-66
2021/12/10 00:02:50;;;;;;;4.57;2.00;;;;;;;1.38;100.00;96875.88;5111303;28;20671;-66
2021/12/10 00:05:20;;;;;;;4.67;2.40;;;;;;;1.30;100.00;96877.19;5110303;28;20226;-66
2021/12/10 00:07:47;;;;;;;5.90;2.10;;;;;;;1.29;100.00;96871.13;5101009;28;20219;-66
2021/12/10 00:10:18;;;;;;;5.17;2.10;;;;;;;1.27;100.00;96862.59;5110578;28;20210;-66
2021/12/10 00:12:50;;;;;;;5.73;2.27;;;;;;;1.24;100.00;96862.72;5110125;28;20238;-66
2021/12/10 00:15:20;;;;;;;3.87;2.20;;;;;;;1.21;100.00;96857.69;5108921;28;20320;-66
2021/12/10 00:17:47;;;;;;;6.70;2.67;;;;;;;1.22;100.00;96850.75;5113180;28;20224;-66
2021/12/10 00:20:14;;;;;;;5.70;2.63;;;;;;;1.14;100.00;96850.28;5113416;28;20214;-66
2021/12/10 00:22:50;;;;;;;3.30;2.13;;;;;;;1.13;100.00;96846.88;5110476;28;20230;-66
2021/12/10 00:25:20;;;;;;;3.83;2.27;;;;;;;1.09;100.00;96840.13;5111311;28;20753;-67
2021/12/10 00:27:47;;;;;;;5.30;2.20;;;;;;;1.08;100.00;96830.66;5113159;28;20210;-66
2021/12/10 00:30:18;;;;;;;5.70;2.27;;;;;;;1.05;100.00;96830.78;5112370;28;20218;-66
2021/12/10 00:32:58;;;;;;;3.50;2.13;;;;;;;0.98;100.00;96824.25;5112284;28;20659;-66
2021/12/10 00:35:27;;;;;;;6.90;2.50;;;;;;;0.94;100.00;96825.34;5113185;28;20206;-66
2021/12/10 00:37:54;;;;;;;2.67;2.10;;;;;;;0.88;100.00;96812.66;5113293;28;20597;-66
2021/12/10 00:40:23;;;;;;;6.77;2.10;;;;;;;0.84;100.00;96816.31;5109982;28;20218;-66
2021/12/10 00:42:49;;;;;;;3.37;2.10;;;;;;;0.80;100.00;96808.78;5112765;28;20683;-66
2021/12/10 00:45:18;;;;;;;5.87;2.50;;;;;;;0.80;100.00;96804.38;5112969;28;20252;-66
2021/12/10 00:47:50;;;;;;;3.57;2.17;;;;;;;0.72;100.00;96806.56;5112957;28;20214;-66
2021/12/10 00:50:19;;;;;;;2.93;2.10;;;;;;;0.75;100.00;96795.16;5105113;28;20225;-66
2021/12/10 00:52:46;;;;;;;4.47;2.10;;;;;;;0.71;100.00;96778.88;5105280;28;20209;-66
2021/12/10 00:55:14;;;;;;;4.13;2.03;;;;;;;0.66;100.00;96770.47;5103511;28;20211;-66
2021/12/10 00:57:41;;;;;;;6.10;2.40;;;;;;;0.61;100.00;96769.88;5103695;28;20213;-66
2021/12/10 01:00:13;;;;;;;3.50;2.20;;;;;;;0.62;100.00;96763.75;5106866;28;20710;-66
2021/12/10 01:02:39;;;;;;;4.23;2.10;;;;;;;0.59;100.00;96763.91;5106298;28;20584;-66
2021/12/10 01:05:11;;;;;;;4.47;2.30;;;;;;;0.52;100.00;96769.50;5102819;28;20711;-66
2021/12/10 01:07:39;;;;;;;4.67;2.30;;;;;;;0.51;100.00;96763.44;5105841;28;20261;-67
2021/12/10 01:10:12;;;;;;;3.07;2.00;;;;;;;0.46;100.00;96762.88;5107045;28;20231;-66
2021/12/10 01:12:42;;;;;;;6.97;2.20;;;;;;;0.41;100.00;96762.25;5107976;28;20246;-66
2021/12/10 01:15:35;;;;;;;4.43;2.20;;;;;;;0.40;100.00;96750.19;5109748;28;20218;-66
2021/12/10 01:23:51;;;;;;;4.30;1.90;;;;;;;0.32;100.00;96738.50;5108550;28;20220;-66
2021/12/10 01:26:41;;;;;;;4.67;2.33;;;;;;;0.25;100.00;96732.78;5106560;28;20239;-67
2021/12/10 01:29:10;;;;;;;5.77;2.60;;;;;;;0.25;100.00;96732.78;5109188;28;20214;-66
2021/12/10 01:31:37;;;;;;;4.73;2.60;;;;;;;0.23;100.00;96728.56;5107736;28;20285;-66
2021/12/10 01:34:05;;;;;;;3.13;2.30;;;;;;;0.22;100.00;96722.56;5097134;28;20676;-66
2021/12/10 01:36:34;;;;;;;4.40;2.00;;;;;;;0.21;100.00;96718.28;5109266;28;20217;-66
2021/12/10 01:39:00;;;;;;;3.83;2.20;;;;;;;0.20;100.00;96716.56;5109190;28;20214;-66
2021/12/10 01:41:34;;;;;;;2.80;2.30;;;;;;;0.15;100.00;96705.59;5107522;28;20206;-66
2021/12/10 01:44:04;;;;;;;3.20;2.20;;;;;;;0.15;100.00;96700.41;5104678;28;20211;-66
2021/12/10 01:46:38;;;;;;;6.17;2.67;;;;;;;0.12;100.00;96700.56;5108958;28;20246;-66
2021/12/10 01:49:06;;;;;;;4.93;2.10;;;;;;;0.10;100.00;96689.41;5109023;28;20206;-66
2021/12/10 01:51:36;;;;;;;3.53;2.17;;;;;;;0.09;100.00;96677.34;5102313;28;20207;-66
2021/12/10 01:54:08;;;;;;;3.97;1.97;;;;;;;0.04;100.00;96675.88;5107748;28;20244;-66
2021/12/10 01:56:38;;;;;;;6.13;2.73;;;;;;;0.00;100.00;96675.19;5108549;28;20216;-66
2021/12/10 01:59:08;;;;;;;4.63;2.43;;;;;;;-0.06;100.00;96667.72;5110365;28;20221;-66
2021/12/10 02:01:40;;;;;;;3.87;2.20;;;;;;;-0.07;100.00;96660.84;5104996;28;20238;-66
2021/12/10 02:04:08;;;;;;;2.73;2.00;;;;;;;-0.11;100.00;96651.53;5108685;28;20589;-66
2021/12/10 02:06:36;;;;;;;3.53;2.00;;;;;;;-0.20;100.00;96650.34;5105084;28;20289;-66
2021/12/10 02:09:04;;;;;;;5.30;1.83;;;;;;;-0.25;100.00;96647.94;5105731;28;20217;-66
2021/12/10 02:11:30;;;;;;;3.90;1.83;;;;;;;-0.25;100.00;96637.56;5104832;28;20244;-66
2021/12/10 02:13:57;;;;;;;4.63;2.20;;;;;;;-0.28;100.00;96637.75;5108264;28;20210;-66
2021/12/10 02:16:24;;;;;;;4.27;2.20;;;;;;;-0.28;100.00;96631.69;5108487;28;20636;-66
2021/12/10 02:18:51;;;;;;;2.00;1.80;;;;;;;-0.30;100.00;96628.34;5106308;28;20214;-66
2021/12/10 02:21:21;;;;;;;5.17;2.10;;;;;;;-0.30;100.00;96620.56;5105273;28;20221;-66
2021/12/10 02:23:55;;;;;;;4.63;2.30;;;;;;;-0.31;100.00;96616.28;5108081;28;20233;-66
2021/12/10 02:26:23;;;;;;;3.53;2.57;;;;;;;-0.31;100.00;96606.72;5107922;28;20286;-67
2021/12/10 02:28:49;;;;;;;2.50;1.77;;;;;;;-0.33;100.00;96613.75;5105104;28;20211;-67
2021/12/10 02:31:16;;;;;;;4.57;2.00;;;;;;;-0.35;100.00;96599.19;5106289;28;20214;-66
2021/12/10 02:33:43;;;;;;;4.10;2.30;;;;;;;-0.44;100.00;96599.66;5108271;28;20216;-66
2021/12/10 02:36:12;;;;;;;6.17;2.13;;;;;;;-0.46;100.00;96594.53;5106204;28;20209;-66
2021/12/10 02:38:41;;;;;;;3.67;2.07;;;;;;;-0.45;100.00;96593.63;5102093;28;20268;-66
2021/12/10 02:41:08;;;;;;;4.47;2.53;;;;;;;-0.40;100.00;96588.19;5106246;28;20214;-66
2021/12/10 02:43:34;;;;;;;3.87;2.20;;;;;;;-0.40;100.00;96576.06;5108099;28;20262;-66
2021/12/10 02:46:01;;;;;;;5.00;2.10;;;;;;;-0.36;100.00;96571.56;5107581;28;20734;-66
2021/12/10 02:48:29;;;;;;;2.73;1.70;;;;;;;-0.43;100.00;96554.63;5104960;28;20240;-66
2021/12/10 02:50:57;;;;;;;4.53;2.03;;;;;;;-0.41;100.00;96542.41;5105922;28;20228;-66
2021/12/10 02:53:28;;;;;;;2.97;1.60;;;;;;;-0.40;100.00;96534.56;5107997;28;20217;-66
2021/12/10 02:55:57;;;;;;;5.07;2.00;;;;;;;-0.36;100.00;96540.41;5107944;28;20299;-66
2021/12/10 02:58:25;;;;;;;5.83;2.30;;;;;;;-0.38;100.00;96542.25;5105131;28;20216;-66
2021/12/10 03:00:57;;;;;;;4.47;1.97;;;;;;;-0.37;100.00;96549.13;5110257;28;20221;-66
2021/12/10 03:03:24;;;;;;;5.67;2.10;;;;;;;-0.33;100.00;96540.28;5109230;28;20562;-66
2021/12/10 03:05:51;;;;;;;4.53;2.13;;;;;;;-0.30;100.00;96534.91;5104380;28;20596;-66
2021/12/10 03:08:18;;;;;;;5.17;2.37;;;;;;;-0.31;100.00;96528.06;5103736;28;20221;-66
2021/12/10 03:10:45;;;;;;;5.33;2.03;;;;;;;-0.35;100.00;96522.19;5106486;28;20730;-66
2021/12/10 03:13:13;;;;;;;4.50;2.40;;;;;;;-0.40;100.00;96523.31;5107846;28;20216;-66
2021/12/10 03:15:42;;;;;;;3.93;2.40;;;;;;;-0.41;100.00;96524.25;5107553;28;20218;-66
2021/12/10 03:18:14;;;;;;;4.93;2.57;;;;;;;-0.43;100.00;96518.31;5103740;28;20301;-66
2021/12/10 03:20:40;;;;;;;6.10;2.60;;;;;;;-0.45;100.00;96520.16;5107243;28;20688;-66
2021/12/10 03:23:09;;;;;;;5.50;2.47;;;;;;;-0.43;100.00;96513.13;5107377;28;20210;-66
2021/12/10 03:25:36;;;;;;;6.00;2.73;;;;;;;-0.41;100.00;96509.53;5106691;28;20241;-66
2021/12/10 03:28:04;;;;;;;5.73;2.93;;;;;;;-0.39;100.00;96510.28;5102268;28;20226;-66
2021/12/10 03:30:37;;;;;;;6.13;2.63;;;;;;;-0.38;100.00;96503.34;5107466;28;20236;-66
2021/12/10 03:33:04;;;;;;;4.77;2.90;;;;;;;-0.38;100.00;96500.75;5111606;28;20213;-66
2021/12/10 03:35:34;;;;;;;7.20;3.57;;;;;;;-0.38;100.00;96501.56;5110047;28;20213;-66
2021/12/10 03:38:04;;;;;;;5.40;3.07;;;;;;;-0.40;100.00;96493.03;5108224;28;20221;-66
2021/12/10 03:40:31;;;;;;;7.77;3.50;;;;;;;-0.40;100.00;96487.00;5111383;28;20248;-66
2021/12/10 03:42:59;;;;;;;7.03;3.57;;;;;;;-0.43;100.00;96488.00;5111550;28;20216;-66
2021/12/10 03:45:29;;;;;;;6.53;3.20;;;;;;;-0.44;100.00;96482.91;5109039;28;20240;-66
2021/12/10 03:47:59;;;;;;;5.87;3.13;;;;;;;-0.48;100.00;96478.78;5108641;28;20221;-66
2021/12/10 03:50:30;;;;;;;7.10;3.33;;;;;;;-0.49;100.00;96474.50;5111025;28;20214;-66
2021/12/10 03:52:57;;;;;;;6.47;3.53;;;;;;;-0.50;100.00;96475.44;5111289;28;20236;-66
2021/12/10 03:55:24;;;;;;;5.10;3.07;;;;;;;-0.51;100.00;96468.56;5106383;28;20223;-66
2021/12/10 03:57:51;;;;;;;5.80;3.53;;;;;;;-0.51;100.00;96453.00;5109215;28;20213;-66
2021/12/10 04:00:21;;;;;;;4.67;3.37;;;;;;;-0.51;100.00;96447.81;5110941;28;20224;-66
2021/12/10 04:02:48;;;;;;;11.70;4.27;;;;;;;-0.55;100.00;96447.13;5111170;28;20217;-66
2021/12/10 04:05:16;;;;;;;5.83;3.97;;;;;;;-0.58;100.00;96439.50;5107273;28;20210;-66
2021/12/10 04:07:43;;;;;;;6.80;4.10;;;;;;;-0.55;100.00;96430.72;5112018;28;20677;-66
2021/12/10 04:10:14;;;;;;;6.27;3.97;;;;;;;-0.57;100.00;96417.84;5113652;28;20210;-66
2021/12/10 04:12:40;;;;;;;4.90;3.60;;;;;;;-0.71;100.00;96412.53;5110857;28;20241;-66
2021/12/10 04:15:09;;;;;;;6.37;3.60;;;;;;;-0.90;100.00;96410.97;5108182;28;20213;-65
2021/12/10 04:17:37;;;;;;;5.80;3.33;;;;;;;-1.03;100.00;96407.34;5113431;28;20298;-66
2021/12/10 04:20:06;;;;;;;7.90;3.20;;;;;;;-0.99;100.00;96409.69;5111733;28;20221;-66
2021/12/10 04:22:35;;;;;;;4.00;2.93;;;;;;;-0.97;100.00;96396.66;5110196;28;20671;-66
2021/12/10 04:25:04;;;;;;;6.87;3.20;;;;;;;-0.99;100.00;96403.69;5113227;28;20230;-66
2021/12/10 04:27:31;;;;;;;6.27;2.50;;;;;;;-1.08;100.00;96393.78;5113188;28;20586;-66
2021/12/10 04:29:58;;;;;;;5.83;3.23;;;;;;;-1.16;100.00;96406.28;5112907;28;20220;-66
2021/12/10 04:32:26;;;;;;;6.20;2.93;;;;;;;-1.24;100.00;96403.25;5110336;28;20214;-66
2021/12/10 04:34:53;;;;;;;5.60;3.37;;;;;;;-1.34;100.00;96396.84;5113150;28;20224;-66
2021/12/10 04:37:20;;;;;;;3.90;2.80;;;;;;;-1.39;100.00;96396.25;5113064;28;20217;-66
2021/12/10 04:39:48;;;;;;;4.03;2.93;;;;;;;-1.41;100.00;96390.31;5112797;28;20724;-66
2021/12/10 04:42:18;;;;;;;7.10;3.20;;;;;;;-1.38;100.00;96390.13;5109907;28;20216;-66
2021/12/10 04:44:45;;;;;;;4.17;3.20;;;;;;;-1.35;100.00;96384.81;5112984;28;20247;-66
2021/12/10 04:47:12;;;;;;;5.90;3.07;;;;;;;-1.38;100.00;96378.03;5111211;27;20235;-66
2021/12/10 04:49:38;;;;;;;5.23;3.23;;;;;;;-1.39;100.00;96371.19;5112879;28;20701;-66
2021/12/10 04:52:06;;;;;;;4.57;2.97;;;;;;;-1.41;100.00;96372.19;5109736;28;20214;-66
2021/12/10 04:54:34;;;;;;;10.23;4.20;;;;;;;-1.44;100.00;96375.75;5112406;28;20213;-66
2021/12/10 04:57:03;;;;;;;6.57;3.77;;;;;;;-1.46;100.00;96371.56;5112444;28;20217;-66
2021/12/10 04:59:32;;;;;;;8.30;3.17;;;;;;;-1.44;100.00;96365.38;5112812;28;20221;-66
2021/12/10 05:02:00;;;;;;;5.47;3.20;;;;;;;-1.46;100.00;96356.03;5104185;28;20220;-66
2021/12/10 05:04:29;;;;;;;5.33;3.80;;;;;;;-1.45;100.00;96360.28;5107130;28;20217;-66
2021/12/10 05:06:56;;;;;;;6.57;3.43;;;;;;;-1.45;100.00;96347.31;5104489;28;20230;-66
2021/12/10 05:09:23;;;;;;;6.03;3.57;;;;;;;-1.48;100.00;96344.91;5112539;28;20213;-66
2021/12/10 05:11:50;;;;;;;4.63;3.07;;;;;;;-1.58;100.00;96336.75;5103326;28;20238;-66
2021/12/10 05:14:20;;;;;;;6.70;3.93;;;;;;;-1.62;100.00;96345.59;5105844;28;20216;-66
2021/12/10 05:16:49;;;;;;;7.70;3.60;;;;;;;-1.68;100.00;96337.28;5101561;28;20224;-66
2021/12/10 05:19:17;;;;;;;6.03;3.23;;;;;;;-1.67;100.00;96337.22;5109401;28;20598;-66
2021/12/10 05:21:47;;;;;;;6.63;3.50;;;;;;;-1.61;100.00;96320.53;5107694;28;20209;-66
2021/12/10 05:24:14;;;;;;;5.37;3.63;;;;;;;-1.57;100.00;96315.13;5106436;28;20220;-66
2021/12/10 05:26:42;;;;;;;5.00;2.90;;;;;;;-1.66;100.00;96306.97;5109354;28;20244;-66
2021/12/10 05:29:09;;;;;;;5.17;3.10;;;;;;;-1.78;100.00;96302.41;5109346;28;20214;-66
2021/12/10 05:31:40;;;;;;;6.90;3.77;;;;;;;-1.84;100.00;96303.53;5107176;28;20225;-66
2021/12/10 05:34:07;;;;;;;7.13;3.80;;;;;;;-1.96;100.00;96309.31;5106731;28;20236;-66
2021/12/10 05:36:34;;;;;;;7.33;4.23;;;;;;;-1.88;100.00;96302.03;5109243;28;20218;-66
2021/12/10 05:39:01;;;;;;;8.90;5.00;;;;;;;-1.81;100.00;96303.41;5107605;28;20244;-65
2021/12/10 05:41:28;;;;;;;9.83;5.27;;;;;;;-1.78;100.00;96294.66;5106577;28;20587;-66
2021/12/10 05:43:54;;;;;;;9.30;5.13;;;;;;;-1.83;100.00;96294.03;5106278;28;20219;-66
2021/12/10 05:46:21;;;;;;;5.90;4.63;;;;;;;-1.88;100.00;96301.19;5109140;28;20607;-65
2021/12/10 05:48:49;;;;;;;8.47;4.57;;;;;;;-1.96;100.00;96298.16;5108704;28;20217;-66
2021/12/10 05:51:15;;;;;;;8.37;4.37;;;;;;;-1.97;100.00;96296.47;5107047;28;20217;-66
2021/12/10 05:53:43;;;;;;;6.17;4.60;;;;;;;-1.97;100.00;96302.47;5105163;28;20213;-65
2021/12/10 05:56:10;;;;;;;9.40;4.77;;;;;;;-2.10;100.00;96300.56;5108811;28;20234;-65
2021/12/10 05:58:37;;;;;;;6.70;4.60;;;;;;;-2.19;100.00;96306.19;5108572;28;20208;-65
2021/12/10 06:01:07;;;;;;;9.20;4.53;;;;;;;-2.20;100.00;96305.34;5106790;28;20216;-65
2021/12/10 06:03:37;;;;;;;6.57;4.40;;;;;;;-2.23;100.00;96305.50;5103884;28;20235;-66
2021/12/10 06:06:06;;;;;;;9.83;4.50;;;;;;;-2.22;100.00;96296.84;5108745;28;20231;-65
2021/12/10 06:08:33;;;;;;;9.03;4.37;;;;;;;-2.20;100.00;96289.00;5100556;28;20224;-66
2021/12/10 06:11:01;;;;;;;7.53;4.50;;;;;;;-2.19;100.00;96285.50;5105472;28;20255;-66
2021/12/10 06:13:28;;;;;;;6.30;4.57;;;;;;;-2.20;100.00;96283.81;5104346;28;20227;-66
2021/12/10 06:15:55;;;;;;;6.43;4.33;;;;;;;-2.18;100.00;96269.91;5101889;28;20224;-65
2021/12/10 06:18:22;;;;;;;11.50;5.20;;;;;;;-2.09;100.00;96260.84;5102698;28;20670;-65
2021/12/10 06:20:52;;;;;;;8.70;6.00;;;;;;;-1.79;100.00;96252.38;5105355;28;20234;-65
2021/12/10 06:23:21;;;;;;;6.83;5.30;;;;;;;-1.59;100.00;96241.00;5104188;28;20228;-65
2021/12/10 06:25:48;;;;;;;9.47;5.93;;;;;;;-1.53;100.00;96230.34;5101554;28;20589;-65
2021/12/10 06:28:16;;;;;;;9.67;5.20;;;;;;;-1.56;100.00;96233.06;5106385;28;20578;-65
2021/12/10 06:30:46;;;;;;;10.50;5.70;;;;;;;-1.62;100.00;96223.88;5103381;28;20214;-65
2021/12/10 06:33:16;;;;;;;7.73;5.50;;;;;;;-1.70;100.00;96227.78;5106401;28;20614;-65
2021/12/10 06:35:45;;;;;;;8.97;5.20;;;;;;;-1.78;100.00;96229.94;5108411;28;20216;-65
2021/12/10 06:38:12;;;;;;;10.00;5.40;;;;;;;-1.82;100.00;96218.03;5107944;28;20527;-65
2021/12/10 06:40:43;;;;;;;10.63;5.77;;;;;;;-1.88;100.00;96220.94;5105309;28;20229;-65
2021/12/10 06:43:10;;;;;;;11.30;5.37;;;;;;;-1.92;100.00;96211.66;5110816;28;20216;-65
2021/12/10 06:45:38;;;;;;;8.40;5.20;;;;;;;-2.01;100.00;96196.59;5110626;28;20218;-65
2021/12/10 06:48:08;;;;;;;9.47;5.33;;;;;;;-2.08;100.00;96200.44;5107819;28;20232;-66
2021/12/10 06:50:37;;;;;;;9.20;6.27;;;;;;;-1.99;100.00;96199.94;5110850;28;20222;-65
2021/12/10 06:53:04;;;;;;;9.83;6.30;;;;;;;-1.86;100.00;96190.63;5110712;28;20213;-65
2021/12/10 06:55:32;;;;;;;13.03;6.80;;;;;;;-1.70;100.00;96182.03;5108419;28;20221;-65
2021/12/10 06:58:00;;;;;;;11.40;6.10;;;;;;;-1.71;100.00;96164.78;5107838;28;20221;-65
2021/12/10 07:00:30;;;;;;;11.03;6.87;;;;;;;-1.66;100.00;96162.78;5110594;28;20212;-65
2021/12/10 07:02:57;;;;;;;10.93;6.83;;;;;;;-1.72;100.00;96167.47;5099934;28;20216;-65
2021/12/10 07:05:24;;;;;;;11.37;7.30;;;;;;;-1.76;100.00;96159.03;5107685;28;20494;-65
2021/12/10 07:07:50;;;;;;;8.90;6.27;;;;;;;-1.86;100.00;96159.56;5106285;28;20257;-65
2021/12/10 07:10:18;;;;;;;13.00;7.10;;;;;;;-1.89;100.00;96154.56;5109240;28;20212;-65
2021/12/10 07:12:45;;;;;;;15.37;7.37;;;;;;;-1.96;100.00;96142.88;5105677;28;20571;-65
2021/12/10 07:15:15;;;;;;;12.13;7.23;;;;;;;-2.03;100.00;96141.53;5105296;28;20307;-65
2021/12/10 07:17:44;;;;;;;12.13;7.87;;;;;;;-1.90;100.00;96121.84;5106235;28;20221;-66
2021/12/10 07:20:12;;;;;;;12.03;6.83;;;;;;;-1.78;100.00;96116.03;5108963;28;20214;-65
2021/12/10 07:22:39;;;;;;;12.07;7.27;;;;;;;-1.74;100.00;96120.09;5103520;28;20210;-65
2021/12/10 07:25:08;;;;;;;14.37;7.43;;;;;;;-1.75;100.00;96113.25;5105379;28;20220;-65
2021/12/10 07:27:35;;;;;;;12.73;8.30;;;;;;;-1.65;100.00;96109.28;5108806;28;20239;-66
2021/12/10 07:30:01;;;;;;;13.17;7.60;;;;;;;-1.62;100.00;96103.91;5108313;28;20688;-66
2021/12/10 07:32:29;;;;;;;17.73;8.47;;;;;;;-1.60;100.00;96100.31;5105171;28;20213;-65
2021/12/10 07:34:56;;;;;;;15.87;8.10;;;;;;;-1.55;100.00;96097.47;5105136;28;20214;-65
2021/12/10 07:37:22;;;;;;;13.07;7.67;;;;;;;-1.58;100.00;96106.28;5108632;28;20216;-66
2021/12/10 07:39:49;;;;;;;14.77;8.87;;;;;;;-1.52;100.00;96102.50;5108770;28;20215;-65
2021/12/10 07:42:16;;;;;;;13.53;8.47;;;;;;;-1.43;100.00;96102.00;5104634;28;20675;-65
2021/12/10 07:44:43;;;;;;;19.93;10.17;;;;;;;-1.35;100.00;96107.63;5105043;28;20581;-66
2021/12/10 07:47:12;;;;;;;17.00;7.97;;;;;;;-1.28;100.00;96106.34;5108290;28;20237;-65
2021/12/10 07:49:41;;;;;;;14.90;9.07;;;;;;;-1.19;100.00;96098.91;5107695;28;20216;-65
2021/12/10 07:52:15;;;;;;;12.07;7.97;;;;;;;-1.11;100.00;96095.91;5103297;28;20223;-65
2021/12/10 07:54:42;;;;;;;14.93;8.03;;;;;;;-1.01;100.00;96104.81;5111058;28;20678;-65
2021/12/10 07:57:09;;;;;;;15.00;8.80;;;;;;;-0.92;100.00;96084.38;5108898;28;20224;-65
2021/12/10 07:59:35;;;;;;;12.87;8.13;;;;;;;-0.85;100.00;96083.13;5108151;28;20235;-65
2021/12/10 08:02:03;;;;;;;14.60;8.40;;;;;;;-0.88;100.00;96075.53;5110950;28;20218;-65
2021/12/10 08:04:30;;;;;;;16.13;8.87;;;;;;;-0.85;100.00;96074.50;5110887;28;20217;-65
2021/12/10 08:06:58;;;;;;;14.87;8.47;;;;;;;-0.82;100.00;96076.91;5104286;28;20709;-65
2021/12/10 08:09:24;;;;;;;15.90;8.63;;;;;;;-0.86;100.00;96084.03;5107884;28;20591;-65
2021/12/10 08:11:51;;;;;;;13.67;8.10;;;;;;;-0.86;100.00;96083.22;5103963;28;20238;-65
2021/12/10 08:14:17;;;;;;;14.97;9.33;;;;;;;-0.81;100.00;96082.03;5102864;28;20299;-65
2021/12/10 08:16:44;;;;;;;15.50;10.03;;;;;;;-0.77;100.00;96077.50;5107509;28;20227;-65
2021/12/10 08:19:12;;;;;;;15.90;9.57;;;;;;;-0.66;100.00;96077.72;5107958;28;20216;-66
2021/12/10 08:21:39;;;;;;;17.53;9.60;;;;;;;-0.60;100.00;96069.59;5103928;28;20215;-65
2021/12/10 08:24:08;;;;;;;14.20;9.53;;;;;;;-0.47;100.00;96070.53;5104135;28;20213;-65
2021/12/10 08:26:35;;;;;;;17.30;9.03;;;;;;;-0.39;100.00;96078.72;5107385;28;20699;-65
2021/12/10 08:29:03;;;;;;;13.77;8.87;;;;;;;-0.33;100.00;96073.16;5107420;28;20213;-65
2021/12/10 08:31:30;;;;;;;15.83;9.27;;;;;;;-0.30;100.00;96067.78;5103636;28;20684;-65
2021/12/10 08:33:57;;;;;;;17.00;9.17;;;;;;;-0.29;100.00;96074.63;5103986;28;20221;-65
2021/12/10 08:36:24;;;;;;;14.00;9.30;;;;;;;-0.28;100.00;96070.19;5107785;28;20577;-65
2021/12/10 08:38:51;;;;;;;14.03;9.10;;;;;;;-0.29;100.00;96069.44;5107283;28;20738;-65
2021/12/10 08:41:22;;;;;;;17.73;10.00;;;;;;;-0.31;100.00;96081.69;5102212;28;20221;-66
2021/12/10 08:43:50;;;;;;;17.40;9.13;;;;;;;-0.31;100.00;96076.50;5104252;28;20214;-66
2021/12/10 08:46:17;;;;;;;14.43;9.33;;;;;;;-0.32;100.00;96078.25;5107209;28;20222;-65
2021/12/10 08:48:44;;;;;;;14.90;8.90;;;;;;;-0.28;100.00;96080.56;5106462;28;20260;-66
2021/12/10 08:51:16;;;;;;;16.90;9.13;;;;;;;-0.23;100.00;96069.09;5103414;28;20215;-65
2021/12/10 08:53:43;;;;;;;17.47;9.57;;;;;;;-0.19;100.00;96080.97;5104580;28;20219;-66
2021/12/10 08:56:09;;;;;;;16.60;9.37;;;;;;;-0.13;100.00;96077.06;5107071;28;20218;-65
2021/12/10 08:58:38;;;;;;;15.90;9.37;;;;;;;0.04;100.00;96073.44;5112521;28;20206;-66
2021/12/10 09:01:07;;;;;;;17.27;10.30;;;;;;;0.19;100.00;96077.72;5112597;28;20217;-65
2021/12/10 09:03:34;;;;;;;16.03;9.30;;;;;;;0.31;100.00;96062.22;5111253;28;20209;-66
2021/12/10 09:06:01;;;;;;;13.73;8.77;;;;;;;0.44;100.00;96070.91;5105058;28;20221;-65
2021/12/10 09:08:27;;;;;;;14.93;9.13;;;;;;;0.58;100.00;96075.25;5107222;28;20600;-65
2021/12/10 09:10:54;;;;;;;15.87;9.63;;;;;;;0.67;100.00;96069.47;5109366;28;20230;-63
2021/12/10 09:13:21;;;;;;;12.37;8.40;;;;;;;0.77;100.00;96066.22;5107226;28;20221;-65
2021/12/10 09:15:54;;;;;;;13.53;8.57;;;;;;;0.83;100.00;96059.78;5105423;28;20221;-64
2021/12/10 09:18:20;;;;;;;13.57;9.37;;;;;;;0.95;100.00;96054.63;5106224;28;20221;-65
2021/12/10 09:20:49;;;;;;;14.30;8.67;;;;;;;1.02;100.00;96050.69;5108867;28;20218;-64
2021/12/10 09:23:20;;;;;;;14.80;8.70;;;;;;;1.10;100.00;96048.44;5108732;28;20210;-65
2021/12/10 09:25:47;;;;;;;14.17;7.50;;;;;;;1.16;100.00;96037.63;5111438;28;20224;-64
2021/12/10 09:28:14;;;;;;;15.40;8.77;;;;;;;1.26;100.00;96043.91;5109155;28;20233;-64
2021/12/10 09:30:43;;;;;;;17.30;9.93;;;;;;;1.30;100.00;96034.94;5109660;28;20220;-64
2021/12/10 09:33:11;;;;;;;16.77;9.10;;;;;;;1.30;100.00;96040.16;5109878;28;20590;-65
2021/12/10 09:35:39;;;;;;;12.97;8.53;;;;;;;1.29;100.00;96030.69;5111197;28;20230;-65
2021/12/10 09:38:06;;;;;;;14.63;8.87;;;;;;;1.27;100.00;96029.94;5109257;28;20562;-64
2021/12/10 09:40:36;;;;;;;13.90;9.43;;;;;;;1.30;100.00;96023.72;5110543;28;20215;-65
2021/12/10 09:43:05;;;;;;;12.97;8.77;;;;;;;1.34;100.00;96030.38;5111046;28;20675;-65
2021/12/10 09:45:34;;;;;;;14.50;9.27;;;;;;;1.39;100.00;96018.75;5111202;28;20210;-65
2021/12/10 09:48:02;;;;;;;15.10;9.80;;;;;;;1.47;100.00;96015.63;5107380;28;20235;-65
2021/12/10 09:50:34;;;;;;;15.83;9.23;;;;;;;1.54;100.00;96007.28;5108598;28;20210;-65
2021/12/10 09:53:01;;;;;;;12.23;8.27;;;;;;;1.56;100.00;95994.16;5109737;28;20671;-65
2021/12/10 09:55:29;;;;;;;14.93;8.80;;;;;;;1.55;100.00;95993.34;5110056;28;20206;-65
2021/12/10 09:57:56;;;;;;;14.77;8.90;;;;;;;1.61;100.00;95998.13;5104052;28;20210;-65
2021/12/10 10:00:29;;;;;;;13.60;8.20;;;;;;;1.69;100.00;95993.25;5106405;28;20210;-65
2021/12/10 10:02:57;;;;;;;15.17;8.57;;;;;;;1.74;100.00;95988.56;5110844;28;20579;-66
2021/12/10 10:05:27;;;;;;;16.47;8.53;;;;;;;1.79;100.00;95985.63;5109657;28;20202;-66
2021/12/10 10:07:56;;;;;;;13.10;8.23;;;;;;;1.79;100.00;95980.44;5109547;28;20248;-66
2021/12/10 10:10:25;;;;;;;12.83;7.90;;;;;;;1.80;100.00;95979.47;5112669;28;20212;-66
2021/12/10 10:12:55;;;;;;;12.80;8.40;;;;;;;1.81;100.00;95974.19;5111346;28;20233;-65
2021/12/10 10:15:25;;;;;;;11.60;7.73;;;;;;;1.87;100.00;95984.16;5109655;28;20583;-66
2021/12/10 10:17:54;;;;;;;10.23;6.87;;;;;;;1.92;100.00;95971.69;5108774;28;20305;-66
2021/12/10 10:20:21;;;;;;;10.70;6.80;;;;;;;1.98;100.00;95971.25;5109243;28;20241;-66
2021/12/10 10:22:48;;;;;;;10.87;6.87;;;;;;;2.01;100.00;95963.22;5109906;28;20708;-66
2021/12/10 10:25:19;;;;;;;12.27;6.90;;;;;;;2.10;100.00;95948.69;5107439;28;20241;-66
2021/12/10 10:27:46;;;;;;;7.50;6.27;;;;;;;2.20;100.00;95944.53;5108344;28;20238;-66
2021/12/10 10:30:17;;;;;;;7.73;5.97;;;;;;;2.17;100.00;95931.69;5109905;28;20205;-66
2021/12/10 10:32:47;;;;;;;9.83;7.30;;;;;;;2.14;100.00;95937.94;5104489;28;20216;-66
2021/12/10 10:35:17;;;;;;;10.70;7.27;;;;;;;2.17;100.00;95937.75;5107404;28;20217;-66
2021/12/10 10:37:45;;;;;;;11.17;7.20;;;;;;;2.26;100.00;95937.09;5101743;28;20207;-65
2021/12/10 10:40:15;;;;;;;10.90;6.77;;;;;;;2.35;100.00;95920.81;5106604;28;20209;-66
2021/12/10 10:42:44;;;;;;;9.87;6.70;;;;;;;2.38;100.00;95912.75;5109113;28;20214;-66
2021/12/10 10:45:17;;;;;;;8.93;6.10;;;;;;;2.36;100.00;95906.81;5101905;28;20210;-66
2021/12/10 10:47:44;;;;;;;9.40;6.43;;;;;;;2.38;100.00;95906.72;5109591;28;20286;-65
2021/12/10 10:50:13;;;;;;;9.63;6.57;;;;;;;2.39;100.00;95901.38;5108259;28;20728;-66
2021/12/10 10:52:43;;;;;;;7.40;5.77;;;;;;;2.42;100.00;95905.53;5107492;28;20633;-66
2021/12/10 10:55:20;;;;;;;7.83;5.60;;;;;;;2.49;100.00;95894.56;5107344;28;20215;-67
2021/12/10 10:57:57;;;;;;;6.67;5.23;;;;;;;2.59;100.00;95897.34;5109146;28;20622;-66
2021/12/10 11:00:32;;;;;;;6.07;4.70;;;;;;;2.70;100.00;95885.16;5110083;28;20221;-66
2021/12/10 11:03:04;;;;;;;7.07;4.90;;;;;;;2.82;100.00;95886.03;5107487;28;20214;-66
2021/12/10 11:05:32;;;;;;;7.10;4.27;;;;;;;2.92;100.00;95887.84;5110578;28;20210;-66
2021/12/10 11:08:02;;;;;;;5.87;4.20;;;;;;;2.99;100.00;95883.84;5109516;28;20230;-66
2021/12/10 11:10:32;;;;;;;5.73;4.27;;;;;;;3.06;100.00;95881.59;5111450;28;20221;-66
2021/12/10 11:13:14;;;;;;;6.60;3.83;;;;;;;3.12;100.00;95874.13;5112598;28;20210;-66
2021/12/10 11:15:53;;;;;;;5.63;3.80;;;;;;;3.21;100.00;95868.22;5110384;28;20211;-66
2021/12/10 11:18:20;;;;;;;6.93;4.00;;;;;;;3.26;100.00;95876.53;5107835;28;20220;-66
2021/12/10 11:20:47;;;;;;;5.10;4.17;;;;;;;3.33;100.00;95872.53;5108517;28;20214;-66
2021/12/10 11:23:16;;;;;;;6.07;4.00;;;;;;;3.39;100.00;95872.06;5110496;28;20583;-66
2021/12/10 11:25:45;;;;;;;5.20;3.90;;;;;;;3.43;99.42;95873.44;5110457;28;20296;-66
2021/12/10 11:28:17;;;;;;;4.83;3.50;;;;;;;3.53;100.00;95873.56;5109136;28;20262;-68
2021/12/10 11:30:46;;;;;;;5.47;3.73;;;;;;;3.55;100.00;95876.91;5109060;28;20210;-65
2021/12/10 11:33:15;;;;;;;5.33;4.23;;;;;;;3.59;100.00;95883.53;5109918;28;20728;-65
2021/12/10 11:35:45;;;;;;;4.63;3.83;;;;;;;3.64;100.00;95890.09;5110071;28;20215;-65
2021/12/10 11:38:14;;;;;;;4.53;3.80;;;;;;;3.69;100.00;95894.97;5107325;28;20706;-65